Time;durP1;ratioP1;P1;durP2;ratioP2;P2;SDS_P1;SDS_P2;PMS_P1;PMS_P2;Temp;Humidity;BMP_temperature;BMP_pressure;BME280_temperature;BME280_humidity;BME280_pressure;Samples;Min_cycle;Max_cycle;Signal;HPM_P1;HPM_P2
2022/12/16 00:00:32;;;;;;;72.30;44.73;;;20.10;86.80;;;;;;1856964;75;21158;-81
2022/12/16 00:03:03;;;;;;;72.05;44.38;;;20.20;86.90;;;;;;1843957;75;21581;-82
2022/12/16 00:05:37;;;;;;;71.90;43.33;;;20.20;87.40;;;;;;1846407;77;21127;-81
2022/12/16 00:08:09;;;;;;;68.30;43.75;;;20.20;86.90;;;;;;1857370;76;21118;-82
2022/12/16 00:10:52;;;;;;;67.97;44.27;;;20.20;86.70;;;;;;1852218;75;21162;-81
2022/12/16 00:13:25;;;;;;;70.05;42.78;;;20.20;86.60;;;;;;1866766;76;21138;-81
2022/12/16 00:15:55;;;;;;;66.92;41.28;;;20.30;86.50;;;;;;1864484;75;21360;-80
2022/12/16 00:18:26;;;;;;;60.88;39.23;;;20.30;86.30;;;;;;1870764;75;21071;-81
2022/12/16 00:20:57;;;;;;;55.78;39.00;;;20.30;86.20;;;;;;1836040;77;21235;-82
2022/12/16 00:23:38;;;;;;;63.48;41.15;;;20.30;86.00;;;;;;1855016;76;21499;-82
2022/12/16 00:26:08;;;;;;;60.15;40.28;;;20.40;85.90;;;;;;1861574;75;21170;-83
2022/12/16 00:28:39;;;;;;;61.98;40.15;;;20.40;85.50;;;;;;1859434;76;21159;-83
2022/12/16 00:31:10;;;;;;;64.58;40.12;;;20.40;85.70;;;;;;1874166;75;21227;-81
2022/12/16 00:33:41;;;;;;;55.75;39.00;;;20.40;85.60;;;;;;1876340;75;21176;-82
2022/12/16 00:36:12;;;;;;;62.27;39.67;;;20.40;85.60;;;;;;1864257;75;21094;-82
2022/12/16 00:38:43;;;;;;;63.75;39.70;;;20.40;86.00;;;;;;1859091;75;21097;-82
2022/12/16 00:41:13;;;;;;;72.97;42.40;;;20.50;86.10;;;;;;1860639;75;21205;-82
2022/12/16 00:43:45;;;;;;;70.05;44.85;;;20.50;85.80;;;;;;1867562;75;21162;-82
2022/12/16 00:46:16;;;;;;;73.67;43.85;;;20.60;85.20;;;;;;1861561;75;21626;-82
2022/12/16 00:48:50;;;;;;;67.55;43.80;;;20.70;84.80;;;;;;1871636;75;21111;-83
2022/12/16 00:51:22;;;;;;;68.55;43.65;;;20.80;84.40;;;;;;1883248;75;21736;-81
2022/12/16 00:53:56;;;;;;;71.40;44.00;;;20.90;84.00;;;;;;1869618;75;21278;-82
2022/12/16 00:56:27;;;;;;;69.20;41.60;;;21.00;84.10;;;;;;1865312;75;21275;-81
2022/12/16 00:58:58;;;;;;;76.53;48.10;;;21.10;84.30;;;;;;1868199;75;21831;-81
2022/12/16 01:01:28;;;;;;;87.42;53.50;;;21.20;83.40;;;;;;1870678;75;21213;-82
2022/12/16 01:03:59;;;;;;;82.80;53.40;;;21.20;83.40;;;;;;1865186;75;21229;-81
2022/12/16 01:06:30;;;;;;;70.30;46.20;;;21.30;83.30;;;;;;1870418;75;21174;-82
2022/12/16 01:09:02;;;;;;;65.65;45.73;;;21.40;83.20;;;;;;1857853;75;21652;-82
2022/12/16 01:11:32;;;;;;;74.80;45.03;;;21.30;82.70;;;;;;1859482;75;21111;-82
2022/12/16 01:14:03;;;;;;;59.25;37.75;;;21.40;82.70;;;;;;1856819;75;21128;-86
2022/12/16 01:16:34;;;;;;;64.42;39.58;;;21.50;82.30;;;;;;1865485;75;21131;-82
2022/12/16 01:19:05;;;;;;;52.73;37.05;;;21.50;82.10;;;;;;1855962;75;21122;-81
2022/12/16 01:21:36;;;;;;;58.70;38.73;;;21.60;82.80;;;;;;1863630;75;21135;-82
2022/12/16 01:24:07;;;;;;;63.42;38.15;;;21.60;81.60;;;;;;1866608;75;21129;-82
2022/12/16 01:26:38;;;;;;;54.98;38.50;;;21.70;81.50;;;;;;1859780;75;21695;-83
2022/12/16 01:29:09;;;;;;;61.53;37.60;;;21.80;81.20;;;;;;1873556;75;21123;-82
2022/12/16 01:31:39;;;;;;;57.38;36.33;;;21.80;81.00;;;;;;1865042;75;21267;-83
2022/12/16 01:34:10;;;;;;;49.03;36.63;;;21.90;81.00;;;;;;1849917;75;21165;-83
2022/12/16 01:36:41;;;;;;;55.35;38.05;;;21.90;81.60;;;;;;1849201;75;21198;-82
2022/12/16 01:39:12;;;;;;;58.55;37.48;;;22.00;80.50;;;;;;1872923;75;21137;-81
2022/12/16 01:41:43;;;;;;;62.70;39.40;;;22.00;80.20;;;;;;1861043;75;21159;-82
2022/12/16 01:44:19;;;;;;;61.80;38.28;;;22.10;80.20;;;;;;1867964;75;21207;-83
2022/12/16 01:46:58;;;;;;;57.23;38.38;;;22.10;80.30;;;;;;1874059;75;21747;-81
2022/12/16 01:49:46;;;;;;;64.10;38.70;;;22.20;80.00;;;;;;1872239;75;21203;-83
2022/12/16 01:52:20;;;;;;;59.23;38.15;;;22.30;79.80;;;;;;1862129;75;21075;-83
2022/12/16 01:54:53;;;;;;;59.67;37.35;;;22.30;79.70;;;;;;1862984;75;21081;-81
2022/12/16 01:57:26;;;;;;;56.85;37.03;;;22.40;79.60;;;;;;1878498;75;21260;-81
2022/12/16 01:59:57;;;;;;;58.80;37.17;;;22.40;79.20;;;;;;1864164;75;21173;-81
2022/12/16 02:02:28;;;;;;;57.98;36.05;;;22.50;79.30;;;;;;1856932;75;21164;-81
2022/12/16 02:07:56;;;;;;;57.17;35.03;;;22.60;79.20;;;;;;1863459;75;21096;-83
2022/12/16 02:10:41;;;;;;;56.88;36.65;;;22.60;79.10;;;;;;1863528;75;21204;-83
2022/12/16 02:13:34;;;;;;;59.88;36.45;;;22.70;79.00;;;;;;1871720;75;21158;-81
2022/12/16 02:16:19;;;;;;;58.10;35.50;;;22.70;79.00;;;;;;1876689;75;21153;-80
2022/12/16 02:19:17;;;;;;;54.42;34.67;;;22.70;79.00;;;;;;1874040;75;21131;-83
2022/12/16 02:22:08;;;;;;;53.98;33.48;;;22.80;78.90;;;;;;1871178;75;21245;-82
2022/12/16 02:24:53;;;;;;;50.25;34.08;;;22.90;78.90;;;;;;1857059;75;21170;-82
2022/12/16 02:27:42;;;;;;;51.58;33.05;;;22.90;78.80;;;;;;1867605;75;21181;-83
2022/12/16 02:30:32;;;;;;;48.65;32.88;;;23.00;78.70;;;;;;1867487;75;21559;-83
2022/12/16 02:33:15;;;;;;;53.65;33.73;;;23.00;78.40;;;;;;1872555;76;21137;-83
2022/12/16 02:36:12;;;;;;;47.15;33.40;;;23.10;78.50;;;;;;1857751;75;21124;-82
2022/12/16 02:38:58;;;;;;;47.83;32.65;;;23.10;78.40;;;;;;1861617;76;21153;-79
2022/12/16 02:41:34;;;;;;;49.90;31.82;;;23.20;78.30;;;;;;1864686;76;21214;-82
2022/12/16 02:44:07;;;;;;;46.98;32.35;;;23.20;79.00;;;;;;1867212;75;21116;-82
2022/12/16 02:46:44;;;;;;;56.00;33.23;;;23.20;78.20;;;;;;1875308;75;21189;-83
2022/12/16 02:49:17;;;;;;;46.60;31.48;;;23.30;77.90;;;;;;1878633;75;21650;-83
2022/12/16 02:51:48;;;;;;;46.13;31.82;;;23.30;77.70;;;;;;1862695;76;21126;-82
2022/12/16 02:54:24;;;;;;;44.30;30.77;;;23.40;77.60;;;;;;1879441;75;21105;-80
2022/12/16 02:57:12;;;;;;;45.78;29.00;;;23.40;77.20;;;;;;1847445;76;21232;-80
2022/12/16 02:59:53;;;;;;;45.25;29.05;;;23.40;76.70;;;;;;1865353;76;21740;-72
2022/12/16 03:02:26;;;;;;;41.42;28.62;;;23.50;76.20;;;;;;1854932;75;21900;-71
2022/12/16 03:05:08;;;;;;;38.88;26.87;;;23.60;76.50;;;;;;1869605;75;21130;-72
2022/12/16 03:07:42;;;;;;;41.33;28.05;;;23.70;76.00;;;;;;1848767;76;21164;-72
2022/12/16 03:10:16;;;;;;;39.92;27.50;;;23.70;75.90;;;;;;1854874;76;21183;-72
2022/12/16 03:12:47;;;;;;;38.00;27.00;;;23.80;75.50;;;;;;1873059;75;21091;-72
2022/12/16 03:15:21;;;;;;;38.48;27.15;;;23.80;74.90;;;;;;1852859;75;21100;-71
2022/12/16 03:17:55;;;;;;;39.65;26.42;;;23.90;74.90;;;;;;1879460;75;21149;-72
2022/12/16 03:20:37;;;;;;;36.45;26.42;;;24.00;74.40;;;;;;1863952;75;21049;-71
2022/12/16 03:23:11;;;;;;;36.75;25.23;;;24.10;74.30;;;;;;1878029;75;21127;-72
2022/12/16 03:25:43;;;;;;;41.02;26.90;;;24.10;73.90;;;;;;1867354;75;21153;-71
2022/12/16 03:28:35;;;;;;;37.53;26.90;;;24.20;74.30;;;;;;1878203;75;21230;-72
2022/12/16 03:31:26;;;;;;;43.58;26.87;;;24.30;74.10;;;;;;1862119;75;21076;-72
2022/12/16 03:34:06;;;;;;;41.75;26.85;;;24.40;73.90;;;;;;1889120;75;21078;-71
2022/12/16 03:36:39;;;;;;;38.88;25.80;;;24.50;73.40;;;;;;1856370;75;21055;-73
2022/12/16 03:39:12;;;;;;;35.45;25.60;;;24.70;72.80;;;;;;1888889;75;21193;-74
2022/12/16 03:41:45;;;;;;;33.48;24.02;;;24.80;72.40;;;;;;1831210;77;21175;-75
2022/12/16 03:44:17;;;;;;;36.00;24.32;;;24.80;72.10;;;;;;1880106;75;21134;-72
2022/12/16 03:46:49;;;;;;;35.50;24.50;;;24.90;71.80;;;;;;1888931;75;21186;-72
2022/12/16 03:49:21;;;;;;;38.33;25.00;;;25.00;71.70;;;;;;1880873;75;21203;-72
2022/12/16 03:51:54;;;;;;;34.75;24.52;;;25.10;71.40;;;;;;1812836;77;21130;-72
2022/12/16 03:54:24;;;;;;;31.45;22.73;;;25.20;70.70;;;;;;1807565;79;21595;-72
2022/12/16 03:56:55;;;;;;;35.58;23.02;;;25.30;70.10;;;;;;1819538;77;21221;-70
2022/12/16 03:59:26;;;;;;;36.55;24.40;;;25.40;69.60;;;;;;1809876;78;21312;-75
2022/12/16 04:01:58;;;;;;;33.30;23.73;;;25.40;69.80;;;;;;1815241;77;21181;-73
2022/12/16 04:04:29;;;;;;;32.38;24.07;;;25.50;69.70;;;;;;1825431;77;21118;-73
2022/12/16 04:09:50;;;;;;;33.42;23.18;;;25.70;69.20;;;;;;1827793;77;21110;-73
2022/12/16 04:26:22;;;;;;;36.45;23.65;;;26.30;67.60;;;;;;1840690;76;21111;-72
2022/12/16 04:28:54;;;;;;;42.48;25.23;;;26.40;66.80;;;;;;1856753;75;21512;-72
2022/12/16 04:31:25;;;;;;;36.75;24.95;;;26.40;66.70;;;;;;1850771;77;21191;-72
